Terminal Aerodrome Forecast
Issued by NWS

Home | Current Version | Previous Version | Text Only | Print | Product List | Glossary On
Versions: 1 2 3 4 5 6 7 8 9 10 11 12 13 14 15
000
FTUS41 KPHI 262328
TAFPNE
TAF
KPNE 262328Z 2700/2724 VRB03KT P6SM BKN080
     FM270300 31006KT P6SM SCT080
     FM271300 31012KT P6SM BKN070
     FM271600 32014G22KT P6SM BKN050
     FM272300 32012KT P6SM SCT070=

USA.gov is the U.S. government's official web portal to all federal, state and local government web resources and services.